Terminal Aerodrome Forecast
Issued by NWS Albuquerque, NM

Home | Current Version | Previous Version | Text Only | Print | Product List | Glossary On
Versions: 1 2 3 4 5 6 7 8 9 10 11 12
000
FTUS45 KABQ 242325
TAFABQ
TAF
KABQ 242325Z 2500/2524 22018G28KT P6SM SCT090
     FM250200 24010KT P6SM FEW120
     FM250800 VRB06KT P6SM SKC
     FM251700 23007KT P6SM FEW250
     FM252000 21015G25KT P6SM SCT090 SCT250=

USA.gov is the U.S. government's official web portal to all federal, state and local government web resources and services.